logo
Rechercher aéroport 
image banner adimage banner adimage banner ad
image banner ad

FAMC - Middelburg

Situé à Middelburg, South Africa

ICAO - FAMC, IATA -

Données fournies par Airmate  

Information générale

Coordonnées: S31°32'50" E25°1'46"
Élévation : 4000 feet MSL.
 
Voir autres Aéroports à Eastern Cape

Données opérationnelles

Special qualification required
Heure actuelle UTC:
Heure actuelle locale:
Météo à : - ( 0 km )
METAR: KNMM 180117Z AUTO 14004KT 10SM BKN008 OVC012 22/21 A2980 RMK AO2 T02220211
Voir NOTAMs / SUP AIP / TFR affectant cet aéroport [VIEW]
Fréquences de communication: [VIEW]

Pistes:

Identifiant RWYQFULongueur (ft)Largeur (ft)SurfaceLDA (ft)
1800UNK
3600UNK
11346198UNK
29346198UNK

Coordonnées de l'aéroport

Adresse: Middelburg South Africa

Vue satellite de FAMC